sensor_id;sensor_type;location;lat;lon;timestamp;pressure;altitude;pressure_sealevel;temperature;humidity
70902;BME280;58548;47.210;8.618;2022-09-14T00:01:25;93538.63;;;27.92;39.76
70902;BME280;58548;47.210;8.618;2022-09-14T00:04:01;93539.88;;;27.94;39.78
70902;BME280;58548;47.210;8.618;2022-09-14T00:06:29;93543.38;;;27.95;39.81
70902;BME280;58548;47.210;8.618;2022-09-14T00:08:57;93548.75;;;28.04;39.76
70902;BME280;58548;47.210;8.618;2022-09-14T00:11:25;93513.81;;;27.86;39.17
70902;BME280;58548;47.210;8.618;2022-09-14T00:13:59;93530.59;;;27.92;39.90
70902;BME280;58548;47.210;8.618;2022-09-14T00:16:30;93554.28;;;28.07;38.92
70902;BME280;58548;47.210;8.618;2022-09-14T00:18:59;93550.50;;;28.08;39.63
70902;BME280;58548;47.210;8.618;2022-09-14T00:21:27;93506.22;;;27.79;40.36
70902;BME280;58548;47.210;8.618;2022-09-14T00:23:56;93555.53;;;28.01;40.35
70902;BME280;58548;47.210;8.618;2022-09-14T00:26:22;93533.06;;;27.88;40.07
70902;BME280;58548;47.210;8.618;2022-09-14T00:28:53;93528.53;;;27.89;39.92
70902;BME280;58548;47.210;8.618;2022-09-14T00:31:24;93541.31;;;27.92;40.70
70902;BME280;58548;47.210;8.618;2022-09-14T00:33:51;93541.00;;;27.93;39.79
70902;BME280;58548;47.210;8.618;2022-09-14T00:36:22;93517.59;;;27.76;39.84
70902;BME280;58548;47.210;8.618;2022-09-14T00:38:49;93511.13;;;27.77;40.37
70902;BME280;58548;47.210;8.618;2022-09-14T00:41:20;93547.44;;;27.92;39.90
70902;BME280;58548;47.210;8.618;2022-09-14T00:44:06;93543.66;;;27.93;39.84
70902;BME280;58548;47.210;8.618;2022-09-14T00:51:47;93526.78;;;27.93;40.51
70902;BME280;58548;47.210;8.618;2022-09-14T00:54:16;93528.84;;;27.96;40.53
70902;BME280;58548;47.210;8.618;2022-09-14T00:56:47;93510.97;;;27.82;39.96
70902;BME280;58548;47.210;8.618;2022-09-14T00:59:25;93508.16;;;27.88;39.09
70902;BME280;58548;47.210;8.618;2022-09-14T01:01:52;93498.50;;;27.78;40.16
70902;BME280;58548;47.210;8.618;2022-09-14T01:04:20;93505.00;;;27.86;39.45
70902;BME280;58548;47.210;8.618;2022-09-14T01:12:52;93504.03;;;27.81;39.96
70902;BME280;58548;47.210;8.618;2022-09-14T01:18:03;93527.09;;;28.00;39.29
70902;BME280;58548;47.210;8.618;2022-09-14T01:26:36;93524.75;;;27.98;39.14
70902;BME280;58548;47.210;8.618;2022-09-14T01:34:29;93529.50;;;28.02;38.53
70902;BME280;58548;47.210;8.618;2022-09-14T01:37:06;93501.84;;;27.92;38.53
70902;BME280;58548;47.210;8.618;2022-09-14T01:39:54;93541.06;;;28.20;37.87
70902;BME280;58548;47.210;8.618;2022-09-14T01:42:27;93519.88;;;28.09;38.17
70902;BME280;58548;47.210;8.618;2022-09-14T01:44:58;93524.16;;;28.10;37.68
70902;BME280;58548;47.210;8.618;2022-09-14T01:47:45;93536.63;;;28.24;38.15
70902;BME280;58548;47.210;8.618;2022-09-14T01:50:23;93522.75;;;28.22;37.98
70902;BME280;58548;47.210;8.618;2022-09-14T01:53:04;93530.97;;;28.34;37.49
70902;BME280;58548;47.210;8.618;2022-09-14T02:01:01;93547.25;;;28.38;37.16
70902;BME280;58548;47.210;8.618;2022-09-14T02:03:39;93516.28;;;28.40;37.11
70902;BME280;58548;47.210;8.618;2022-09-14T02:06:28;93516.91;;;28.46;37.31
70902;BME280;58548;47.210;8.618;2022-09-14T02:09:03;93529.72;;;28.58;37.10
70902;BME280;58548;47.210;8.618;2022-09-14T02:11:31;93516.13;;;28.46;37.11
70902;BME280;58548;47.210;8.618;2022-09-14T02:13:59;93533.81;;;28.55;37.03
70902;BME280;58548;47.210;8.618;2022-09-14T02:16:28;93507.44;;;28.40;36.84
70902;BME280;58548;47.210;8.618;2022-09-14T02:18:55;93520.72;;;28.45;37.28
70902;BME280;58548;47.210;8.618;2022-09-14T02:21:26;93504.59;;;28.27;37.73
70902;BME280;58548;47.210;8.618;2022-09-14T02:23:57;93523.69;;;28.43;37.07
70902;BME280;58548;47.210;8.618;2022-09-14T02:26:29;93508.06;;;28.28;37.75
70902;BME280;58548;47.210;8.618;2022-09-14T02:28:57;93506.63;;;28.22;37.24
70902;BME280;58548;47.210;8.618;2022-09-14T02:34:09;93524.03;;;28.51;37.35
70902;BME280;58548;47.210;8.618;2022-09-14T02:39:46;93534.63;;;28.56;36.63
70902;BME280;58548;47.210;8.618;2022-09-14T02:45:01;93526.06;;;28.63;36.97
70902;BME280;58548;47.210;8.618;2022-09-14T02:53:10;93521.66;;;28.76;35.94
70902;BME280;58548;47.210;8.618;2022-09-14T02:55:56;93538.53;;;28.85;36.57
70902;BME280;58548;47.210;8.618;2022-09-14T02:58:34;93520.56;;;28.77;36.52
70902;BME280;58548;47.210;8.618;2022-09-14T03:01:03;93531.78;;;28.79;37.00
70902;BME280;58548;47.210;8.618;2022-09-14T03:03:33;93522.16;;;28.78;37.30
70902;BME280;58548;47.210;8.618;2022-09-14T03:05:59;93502.50;;;28.68;37.45
70902;BME280;58548;47.210;8.618;2022-09-14T03:08:26;93510.59;;;28.77;37.72
70902;BME280;58548;47.210;8.618;2022-09-14T03:10:52;93509.63;;;28.82;37.63
70902;BME280;58548;47.210;8.618;2022-09-14T03:13:22;93486.88;;;28.70;37.92
70902;BME280;58548;47.210;8.618;2022-09-14T03:15:51;93501.28;;;28.74;37.86
70902;BME280;58548;47.210;8.618;2022-09-14T03:18:17;93467.28;;;28.61;37.85
70902;BME280;58548;47.210;8.618;2022-09-14T03:20:43;93485.75;;;28.71;37.85
70902;BME280;58548;47.210;8.618;2022-09-14T03:23:12;93471.53;;;28.62;37.79
70902;BME280;58548;47.210;8.618;2022-09-14T03:25:41;93419.00;;;28.26;38.20
70902;BME280;58548;47.210;8.618;2022-09-14T03:28:11;93464.31;;;28.54;38.65
70902;BME280;58548;47.210;8.618;2022-09-14T03:30:39;93454.81;;;28.48;38.55
70902;BME280;58548;47.210;8.618;2022-09-14T03:33:08;93447.56;;;28.39;38.23
70902;BME280;58548;47.210;8.618;2022-09-14T03:35:36;93451.38;;;28.38;38.97
70902;BME280;58548;47.210;8.618;2022-09-14T03:38:02;93459.88;;;28.40;39.48
70902;BME280;58548;47.210;8.618;2022-09-14T03:40:28;93486.09;;;28.43;39.06
70902;BME280;58548;47.210;8.618;2022-09-14T03:42:54;93470.00;;;28.26;38.96
70902;BME280;58548;47.210;8.618;2022-09-14T03:45:23;93495.59;;;28.50;39.42
70902;BME280;58548;47.210;8.618;2022-09-14T03:47:51;93511.38;;;28.42;39.28
70902;BME280;58548;47.210;8.618;2022-09-14T03:50:17;93495.91;;;28.39;39.94
70902;BME280;58548;47.210;8.618;2022-09-14T03:52:43;93483.44;;;28.17;39.42
70902;BME280;58548;47.210;8.618;2022-09-14T03:55:12;93509.97;;;28.27;39.14
70902;BME280;58548;47.210;8.618;2022-09-14T03:57:38;93495.41;;;28.28;39.10
70902;BME280;58548;47.210;8.618;2022-09-14T04:00:05;93471.56;;;28.09;39.09
70902;BME280;58548;47.210;8.618;2022-09-14T04:02:34;93480.13;;;28.11;39.52
70902;BME280;58548;47.210;8.618;2022-09-14T04:05:00;93476.44;;;28.07;39.34
70902;BME280;58548;47.210;8.618;2022-09-14T04:07:28;93495.75;;;28.18;38.94
70902;BME280;58548;47.210;8.618;2022-09-14T04:09:56;93464.91;;;27.98;39.69
70902;BME280;58548;47.210;8.618;2022-09-14T04:12:23;93462.53;;;27.88;39.21
70902;BME280;58548;47.210;8.618;2022-09-14T04:14:51;93485.94;;;28.05;39.10
70902;BME280;58548;47.210;8.618;2022-09-14T04:17:19;93472.50;;;27.96;39.79
70902;BME280;58548;47.210;8.618;2022-09-14T04:19:47;93463.97;;;27.94;39.92
70902;BME280;58548;47.210;8.618;2022-09-14T04:22:13;93471.69;;;27.87;39.80
70902;BME280;58548;47.210;8.618;2022-09-14T04:24:44;93487.94;;;27.99;40.42
70902;BME280;58548;47.210;8.618;2022-09-14T04:27:10;93459.53;;;27.80;40.28
70902;BME280;58548;47.210;8.618;2022-09-14T04:29:38;93484.34;;;27.95;39.97
70902;BME280;58548;47.210;8.618;2022-09-14T04:32:05;93409.00;;;27.47;39.72
70902;BME280;58548;47.210;8.618;2022-09-14T04:34:33;93497.75;;;27.95;40.04
70902;BME280;58548;47.210;8.618;2022-09-14T04:37:00;93464.25;;;27.75;40.25
70902;BME280;58548;47.210;8.618;2022-09-14T04:39:26;93473.25;;;27.79;40.50
70902;BME280;58548;47.210;8.618;2022-09-14T04:41:52;93483.19;;;27.87;39.74
70902;BME280;58548;47.210;8.618;2022-09-14T04:44:20;93489.03;;;27.89;39.72
70902;BME280;58548;47.210;8.618;2022-09-14T04:46:46;93476.25;;;27.77;40.36
70902;BME280;58548;47.210;8.618;2022-09-14T04:49:15;93473.09;;;27.75;40.52
70902;BME280;58548;47.210;8.618;2022-09-14T04:51:48;93482.09;;;27.79;40.45
70902;BME280;58548;47.210;8.618;2022-09-14T04:54:20;93451.94;;;27.65;40.04
70902;BME280;58548;47.210;8.618;2022-09-14T04:56:46;93477.34;;;27.76;39.79
70902;BME280;58548;47.210;8.618;2022-09-14T04:59:12;93420.94;;;27.41;40.09
70902;BME280;58548;47.210;8.618;2022-09-14T05:01:45;93458.53;;;27.59;40.15
70902;BME280;58548;47.210;8.618;2022-09-14T05:04:15;93447.63;;;27.46;40.21
70902;BME280;58548;47.210;8.618;2022-09-14T05:06:43;93484.13;;;27.65;40.68
70902;BME280;58548;47.210;8.618;2022-09-14T05:09:16;93455.31;;;27.39;40.33
70902;BME280;58548;47.210;8.618;2022-09-14T05:11:42;93484.72;;;27.53;41.41
70902;BME280;58548;47.210;8.618;2022-09-14T05:14:11;93453.41;;;27.31;40.67
70902;BME280;58548;47.210;8.618;2022-09-14T05:16:39;93481.97;;;27.44;41.07
70902;BME280;58548;47.210;8.618;2022-09-14T05:19:12;93483.84;;;27.44;40.89
70902;BME280;58548;47.210;8.618;2022-09-14T05:21:41;93491.44;;;27.42;41.97
70902;BME280;58548;47.210;8.618;2022-09-14T05:24:15;93465.97;;;27.21;41.60
70902;BME280;58548;47.210;8.618;2022-09-14T05:26:42;93493.81;;;27.43;41.58
70902;BME280;58548;47.210;8.618;2022-09-14T05:29:12;93463.84;;;27.41;41.03
70902;BME280;58548;47.210;8.618;2022-09-14T05:31:38;93498.75;;;27.50;41.24
70902;BME280;58548;47.210;8.618;2022-09-14T05:34:07;93477.56;;;27.39;41.97
70902;BME280;58548;47.210;8.618;2022-09-14T05:36:37;93466.31;;;27.29;41.82
70902;BME280;58548;47.210;8.618;2022-09-14T05:39:04;93489.38;;;27.38;41.63
70902;BME280;58548;47.210;8.618;2022-09-14T05:41:33;93491.59;;;27.45;41.14
70902;BME280;58548;47.210;8.618;2022-09-14T05:43:59;93480.53;;;27.38;41.39
70902;BME280;58548;47.210;8.618;2022-09-14T05:46:25;93487.56;;;27.57;41.43
70902;BME280;58548;47.210;8.618;2022-09-14T05:48:53;93486.44;;;27.49;41.20
70902;BME280;58548;47.210;8.618;2022-09-14T05:51:26;93477.56;;;27.39;41.95
70902;BME280;58548;47.210;8.618;2022-09-14T05:53:54;93451.19;;;27.33;41.35
70902;BME280;58548;47.210;8.618;2022-09-14T05:56:26;93468.22;;;27.37;41.68
70902;BME280;58548;47.210;8.618;2022-09-14T05:58:58;93474.72;;;27.45;41.81
70902;BME280;58548;47.210;8.618;2022-09-14T06:01:27;93492.16;;;27.56;41.96
70902;BME280;58548;47.210;8.618;2022-09-14T06:04:00;93441.41;;;27.37;41.96
70902;BME280;58548;47.210;8.618;2022-09-14T06:06:30;93476.50;;;27.49;42.51
70902;BME280;58548;47.210;8.618;2022-09-14T06:08:57;93486.34;;;27.72;41.35
70902;BME280;58548;47.210;8.618;2022-09-14T06:11:31;93468.56;;;27.44;41.20
70902;BME280;58548;47.210;8.618;2022-09-14T06:13:58;93478.41;;;27.58;41.37
70902;BME280;58548;47.210;8.618;2022-09-14T06:16:26;93400.53;;;27.14;41.77
70902;BME280;58548;47.210;8.618;2022-09-14T06:18:54;93451.59;;;27.58;41.52
70902;BME280;58548;47.210;8.618;2022-09-14T06:21:28;93462.03;;;27.68;40.55
70902;BME280;58548;47.210;8.618;2022-09-14T06:23:57;93444.66;;;27.65;41.25
70902;BME280;58548;47.210;8.618;2022-09-14T06:26:23;93427.31;;;27.63;41.42
70902;BME280;58548;47.210;8.618;2022-09-14T06:28:53;93450.38;;;27.81;41.22
70902;BME280;58548;47.210;8.618;2022-09-14T06:31:24;93456.53;;;27.82;42.00
70902;BME280;58548;47.210;8.618;2022-09-14T06:33:52;93489.88;;;28.07;41.35
70902;BME280;58548;47.210;8.618;2022-09-14T06:36:27;93495.22;;;28.07;41.81
70902;BME280;58548;47.210;8.618;2022-09-14T06:38:58;93474.72;;;28.03;41.66
70902;BME280;58548;47.210;8.618;2022-09-14T06:41:27;93464.91;;;27.98;41.26
70902;BME280;58548;47.210;8.618;2022-09-14T06:43:57;93474.88;;;28.06;40.82
70902;BME280;58548;47.210;8.618;2022-09-14T06:46:29;93501.44;;;28.25;40.01
70902;BME280;58548;47.210;8.618;2022-09-14T06:48:59;93478.06;;;28.17;40.19
70902;BME280;58548;47.210;8.618;2022-09-14T06:51:32;93476.97;;;28.18;40.85
70902;BME280;58548;47.210;8.618;2022-09-14T06:54:04;93501.44;;;28.25;40.41
70902;BME280;58548;47.210;8.618;2022-09-14T06:56:38;93506.34;;;28.32;41.05
70902;BME280;58548;47.210;8.618;2022-09-14T06:59:08;93517.69;;;28.38;40.63
70902;BME280;58548;47.210;8.618;2022-09-14T07:01:37;93493.69;;;28.41;40.04
70902;BME280;58548;47.210;8.618;2022-09-14T07:04:04;93518.03;;;28.54;40.15
70902;BME280;58548;47.210;8.618;2022-09-14T07:06:42;93500.63;;;28.60;39.10
70902;BME280;58548;47.210;8.618;2022-09-14T07:09:14;93512.97;;;28.43;40.13
70902;BME280;58548;47.210;8.618;2022-09-14T07:11:45;93529.25;;;28.47;40.27
70902;BME280;58548;47.210;8.618;2022-09-14T07:14:13;93503.66;;;28.32;39.92
70902;BME280;58548;47.210;8.618;2022-09-14T07:16:47;93505.22;;;28.59;39.83
70902;BME280;58548;47.210;8.618;2022-09-14T07:19:13;93529.72;;;28.76;39.53
70902;BME280;58548;47.210;8.618;2022-09-14T07:21:41;93517.41;;;28.74;39.38
70902;BME280;58548;47.210;8.618;2022-09-14T07:24:12;93501.56;;;28.73;40.18
70902;BME280;58548;47.210;8.618;2022-09-14T07:26:43;93500.00;;;28.81;39.73
70902;BME280;58548;47.210;8.618;2022-09-14T07:29:15;93502.00;;;28.93;40.22
70902;BME280;58548;47.210;8.618;2022-09-14T07:31:44;93528.19;;;29.31;39.46
70902;BME280;58548;47.210;8.618;2022-09-14T07:34:14;93505.56;;;29.32;39.02
70902;BME280;58548;47.210;8.618;2022-09-14T07:36:42;93534.09;;;29.63;39.35
70902;BME280;58548;47.210;8.618;2022-09-14T07:39:14;93544.25;;;29.87;38.23
70902;BME280;58548;47.210;8.618;2022-09-14T07:41:41;93528.53;;;29.98;37.25
70902;BME280;58548;47.210;8.618;2022-09-14T07:44:11;93557.38;;;30.19;36.61
70902;BME280;58548;47.210;8.618;2022-09-14T07:46:40;93548.94;;;30.29;36.52
70902;BME280;58548;47.210;8.618;2022-09-14T07:49:10;93547.09;;;30.42;36.37
70902;BME280;58548;47.210;8.618;2022-09-14T07:51:42;93556.28;;;30.71;36.12
70902;BME280;58548;47.210;8.618;2022-09-14T07:54:11;93535.28;;;30.77;35.78
70902;BME280;58548;47.210;8.618;2022-09-14T07:56:37;93570.50;;;30.93;34.98
70902;BME280;58548;47.210;8.618;2022-09-14T07:59:03;93583.47;;;31.12;34.01
70902;BME280;58548;47.210;8.618;2022-09-14T08:01:31;93551.13;;;31.12;33.79
70902;BME280;58548;47.210;8.618;2022-09-14T08:04:01;93558.38;;;31.20;34.41
70902;BME280;58548;47.210;8.618;2022-09-14T08:06:27;93534.41;;;31.19;32.75
70902;BME280;58548;47.210;8.618;2022-09-14T08:08:58;93572.50;;;31.51;32.26
70902;BME280;58548;47.210;8.618;2022-09-14T08:11:29;93560.78;;;31.47;32.84
70902;BME280;58548;47.210;8.618;2022-09-14T08:14:02;93543.03;;;31.46;32.83
70902;BME280;58548;47.210;8.618;2022-09-14T08:16:31;93562.59;;;31.67;33.59
70902;BME280;58548;47.210;8.618;2022-09-14T08:19:03;93534.25;;;31.61;32.82
70902;BME280;58548;47.210;8.618;2022-09-14T08:21:33;93579.41;;;31.85;32.58
70902;BME280;58548;47.210;8.618;2022-09-14T08:24:00;93586.47;;;32.02;31.83
70902;BME280;58548;47.210;8.618;2022-09-14T08:26:32;93579.06;;;31.99;31.92
70902;BME280;58548;47.210;8.618;2022-09-14T08:29:01;93596.94;;;32.16;31.84
70902;BME280;58548;47.210;8.618;2022-09-14T08:31:35;93591.66;;;32.20;31.31
70902;BME280;58548;47.210;8.618;2022-09-14T08:34:04;93611.50;;;32.37;31.62
70902;BME280;58548;47.210;8.618;2022-09-14T08:36:37;93592.81;;;32.31;31.75
70902;BME280;58548;47.210;8.618;2022-09-14T08:39:05;93593.66;;;32.60;30.79
70902;BME280;58548;47.210;8.618;2022-09-14T08:41:43;93600.81;;;32.81;31.57
70902;BME280;58548;47.210;8.618;2022-09-14T08:46:59;93578.25;;;33.46;28.66
70902;BME280;58548;47.210;8.618;2022-09-14T08:52:27;93594.00;;;33.89;28.66
70902;BME280;58548;47.210;8.618;2022-09-14T08:54:59;93556.09;;;33.73;28.34
70902;BME280;58548;47.210;8.618;2022-09-14T09:03:37;93585.97;;;34.08;27.77
70902;BME280;58548;47.210;8.618;2022-09-14T09:06:15;93577.41;;;34.06;28.08
70902;BME280;58548;47.210;8.618;2022-09-14T09:11:36;93534.06;;;33.74;28.64
70902;BME280;58548;47.210;8.618;2022-09-14T09:14:19;93547.06;;;34.01;28.42
70902;BME280;58548;47.210;8.618;2022-09-14T09:16:50;93537.22;;;34.08;27.47
70902;BME280;58548;47.210;8.618;2022-09-14T09:19:26;93543.13;;;34.14;28.06
70902;BME280;58548;47.210;8.618;2022-09-14T09:21:54;93530.75;;;33.97;28.29
70902;BME280;58548;47.210;8.618;2022-09-14T09:24:26;93537.72;;;33.98;27.93
70902;BME280;58548;47.210;8.618;2022-09-14T09:26:53;93531.09;;;33.79;29.37
70902;BME280;58548;47.210;8.618;2022-09-14T09:29:19;93556.06;;;33.89;28.73
70902;BME280;58548;47.210;8.618;2022-09-14T09:31:50;93554.50;;;33.88;29.07
70902;BME280;58548;47.210;8.618;2022-09-14T09:34:24;93540.53;;;33.86;29.16
70902;BME280;58548;47.210;8.618;2022-09-14T09:36:54;93518.75;;;33.82;29.11
70902;BME280;58548;47.210;8.618;2022-09-14T09:39:23;93537.22;;;34.08;29.51
70902;BME280;58548;47.210;8.618;2022-09-14T09:42:05;93524.41;;;34.25;28.57
70902;BME280;58548;47.210;8.618;2022-09-14T09:44:55;93525.41;;;34.36;28.82
70902;BME280;58548;47.210;8.618;2022-09-14T09:47:43;93500.94;;;34.33;27.96
70902;BME280;58548;47.210;8.618;2022-09-14T09:52:54;93511.97;;;34.60;27.90
70902;BME280;58548;47.210;8.618;2022-09-14T09:55:37;93501.19;;;34.63;27.37
70902;BME280;58548;47.210;8.618;2022-09-14T10:00:58;93496.97;;;34.85;28.60
70902;BME280;58548;47.210;8.618;2022-09-14T10:03:31;93490.28;;;34.99;27.64
70902;BME280;58548;47.210;8.618;2022-09-14T10:06:06;93498.53;;;35.06;27.47
70902;BME280;58548;47.210;8.618;2022-09-14T10:08:45;93473.84;;;34.92;27.21
70902;BME280;58548;47.210;8.618;2022-09-14T10:11:34;93492.75;;;35.08;27.40
70902;BME280;58548;47.210;8.618;2022-09-14T10:14:03;93479.41;;;34.99;26.65
70902;BME280;58548;47.210;8.618;2022-09-14T10:16:37;93454.81;;;34.68;28.46
70902;BME280;58548;47.210;8.618;2022-09-14T10:19:16;93468.16;;;34.77;28.05
70902;BME280;58548;47.210;8.618;2022-09-14T10:22:26;93469.06;;;34.85;27.94
70902;BME280;58548;47.210;8.618;2022-09-14T10:24:58;93437.91;;;34.75;27.41
70902;BME280;58548;47.210;8.618;2022-09-14T10:27:47;93444.28;;;34.86;28.18
70902;BME280;58548;47.210;8.618;2022-09-14T10:30:18;93426.56;;;34.69;27.75
70902;BME280;58548;47.210;8.618;2022-09-14T10:33:06;93439.53;;;34.80;27.66
70902;BME280;58548;47.210;8.618;2022-09-14T10:38:31;93441.53;;;34.63;28.13
70902;BME280;58548;47.210;8.618;2022-09-14T10:43:55;93454.19;;;34.55;28.05
70902;BME280;58548;47.210;8.618;2022-09-14T10:46:35;93445.03;;;34.44;28.07
70902;BME280;58548;47.210;8.618;2022-09-14T10:54:41;93468.91;;;34.19;28.08
70902;BME280;58548;47.210;8.618;2022-09-14T10:57:24;93453.28;;;34.12;28.10
70902;BME280;58548;47.210;8.618;2022-09-14T10:59:58;93460.31;;;33.97;29.27
70902;BME280;58548;47.210;8.618;2022-09-14T11:07:49;93439.06;;;33.63;28.75
70902;BME280;58548;47.210;8.618;2022-09-14T11:10:55;93438.03;;;33.68;29.48
70902;BME280;58548;47.210;8.618;2022-09-14T11:18:58;93414.44;;;33.52;29.75
70902;BME280;58548;47.210;8.618;2022-09-14T11:22:02;93423.72;;;33.51;29.44
70902;BME280;58548;47.210;8.618;2022-09-14T11:24:58;93429.13;;;33.35;29.87
70902;BME280;58548;47.210;8.618;2022-09-14T11:27:32;93449.53;;;33.33;30.08
70902;BME280;58548;47.210;8.618;2022-09-14T11:30:07;93457.91;;;33.28;31.02
70902;BME280;58548;47.210;8.618;2022-09-14T11:32:53;93446.94;;;33.20;30.42
70902;BME280;58548;47.210;8.618;2022-09-14T11:35:38;93442.84;;;33.11;30.68
70902;BME280;58548;47.210;8.618;2022-09-14T11:38:19;93407.22;;;32.92;30.68
70902;BME280;58548;47.210;8.618;2022-09-14T11:46:54;93454.16;;;33.00;30.39
70902;BME280;58548;47.210;8.618;2022-09-14T11:52:17;93444.56;;;32.74;30.54
70902;BME280;58548;47.210;8.618;2022-09-14T11:54:48;93432.19;;;32.57;31.00
70902;BME280;58548;47.210;8.618;2022-09-14T11:57:24;93438.81;;;32.31;31.66
70902;BME280;58548;47.210;8.618;2022-09-14T11:59:55;93441.72;;;32.26;31.48
70902;BME280;58548;47.210;8.618;2022-09-14T12:15:37;93460.91;;;32.09;32.21
70902;BME280;58548;47.210;8.618;2022-09-14T12:23:29;93487.00;;;32.29;31.60
70902;BME280;58548;47.210;8.618;2022-09-14T12:28:41;93491.19;;;32.27;31.78
70902;BME280;58548;47.210;8.618;2022-09-14T12:32:22;93487.78;;;32.30;32.49
70902;BME280;58548;47.210;8.618;2022-09-14T12:34:29;93481.91;;;32.40;32.17
70902;BME280;58548;47.210;8.618;2022-09-14T12:37:00;93499.47;;;32.62;32.07
70902;BME280;58548;47.210;8.618;2022-09-14T12:39:34;93464.63;;;32.45;31.42
70902;BME280;58548;47.210;8.618;2022-09-14T12:42:24;93493.91;;;32.55;32.32
70902;BME280;58548;47.210;8.618;2022-09-14T12:44:53;93460.63;;;32.26;32.39
70902;BME280;58548;47.210;8.618;2022-09-14T12:49:55;93468.28;;;32.24;33.12
70902;BME280;58548;47.210;8.618;2022-09-14T12:52:48;93478.84;;;32.42;33.58
70902;BME280;58548;47.210;8.618;2022-09-14T12:55:47;93480.09;;;32.32;33.67
70902;BME280;58548;47.210;8.618;2022-09-14T12:58:30;93479.09;;;32.24;34.19
70902;BME280;58548;47.210;8.618;2022-09-14T13:01:26;93488.28;;;32.48;33.72
70902;BME280;58548;47.210;8.618;2022-09-14T13:03:58;93485.78;;;32.55;33.24
70902;BME280;58548;47.210;8.618;2022-09-14T13:06:34;93386.47;;;31.95;33.21
70902;BME280;58548;47.210;8.618;2022-09-14T13:09:04;93495.41;;;32.69;33.45
70902;BME280;58548;47.210;8.618;2022-09-14T13:12:06;93412.94;;;32.30;32.54
70902;BME280;58548;47.210;8.618;2022-09-14T13:14:50;93495.16;;;33.02;32.23
70902;BME280;58548;47.210;8.618;2022-09-14T13:17:22;93488.63;;;33.03;32.02
70902;BME280;58548;47.210;8.618;2022-09-14T13:20:00;93475.00;;;33.00;31.35
70902;BME280;58548;47.210;8.618;2022-09-14T13:22:31;93477.63;;;33.12;30.86
70902;BME280;58548;47.210;8.618;2022-09-14T13:24:59;93493.41;;;33.10;30.42
70902;BME280;58548;47.210;8.618;2022-09-14T13:27:34;93484.94;;;32.96;31.14
70902;BME280;58548;47.210;8.618;2022-09-14T13:32:42;93469.03;;;32.78;30.67
70902;BME280;58548;47.210;8.618;2022-09-14T13:38:23;93495.78;;;32.96;29.91
70902;BME280;58548;47.210;8.618;2022-09-14T13:40:53;93468.13;;;32.74;29.82
70902;BME280;58548;47.210;8.618;2022-09-14T13:43:21;93482.31;;;32.83;30.32
70902;BME280;58548;47.210;8.618;2022-09-14T13:45:49;93470.78;;;32.86;30.53
70902;BME280;58548;47.210;8.618;2022-09-14T13:48:24;93465.38;;;32.86;30.08
70902;BME280;58548;47.210;8.618;2022-09-14T13:50:51;93419.56;;;32.77;30.25
70902;BME280;58548;47.210;8.618;2022-09-14T13:53:43;93471.72;;;33.22;29.51
70902;BME280;58548;47.210;8.618;2022-09-14T13:56:29;93462.56;;;33.27;28.85
70902;BME280;58548;47.210;8.618;2022-09-14T14:01:40;93470.16;;;33.21;29.52
70902;BME280;58548;47.210;8.618;2022-09-14T14:09:50;93459.31;;;33.21;28.54
70902;BME280;58548;47.210;8.618;2022-09-14T14:12:41;93461.84;;;33.14;28.28
70902;BME280;58548;47.210;8.618;2022-09-14T14:17:40;93461.22;;;33.21;28.92
70902;BME280;58548;47.210;8.618;2022-09-14T14:20:32;93447.53;;;33.30;29.73
70902;BME280;58548;47.210;8.618;2022-09-14T14:25:36;93452.09;;;33.42;28.88
70902;BME280;58548;47.210;8.618;2022-09-14T14:28:17;93444.47;;;33.47;29.54
70902;BME280;58548;47.210;8.618;2022-09-14T14:30:45;93421.59;;;33.29;29.27
70902;BME280;58548;47.210;8.618;2022-09-14T14:33:17;93406.38;;;33.36;29.24
70902;BME280;58548;47.210;8.618;2022-09-14T14:35:49;93431.56;;;33.57;29.27
70902;BME280;58548;47.210;8.618;2022-09-14T14:38:17;93448.13;;;33.71;29.09
70902;BME280;58548;47.210;8.618;2022-09-14T14:40:52;93439.56;;;33.69;29.14
70902;BME280;58548;47.210;8.618;2022-09-14T14:43:23;93413.13;;;33.62;28.34
70902;BME280;58548;47.210;8.618;2022-09-14T14:46:00;93412.25;;;33.58;28.95
70902;BME280;58548;47.210;8.618;2022-09-14T14:48:27;93423.31;;;33.69;29.46
70902;BME280;58548;47.210;8.618;2022-09-14T14:50:58;93414.69;;;33.63;29.86
70902;BME280;58548;47.210;8.618;2022-09-14T14:53:25;93399.78;;;33.53;28.73
70902;BME280;58548;47.210;8.618;2022-09-14T14:55:51;93423.47;;;33.76;29.18
70902;BME280;58548;47.210;8.618;2022-09-14T14:58:19;93422.63;;;33.72;30.10
70902;BME280;58548;47.210;8.618;2022-09-14T15:00:46;93393.66;;;33.57;28.39
70902;BME280;58548;47.210;8.618;2022-09-14T15:03:15;93412.69;;;33.60;27.79
70902;BME280;58548;47.210;8.618;2022-09-14T15:05:46;93385.56;;;33.41;28.77
70902;BME280;58548;47.210;8.618;2022-09-14T15:08:15;93403.75;;;33.40;29.32
70902;BME280;58548;47.210;8.618;2022-09-14T15:10:44;93383.03;;;33.32;29.76
70902;BME280;58548;47.210;8.618;2022-09-14T15:13:11;93397.44;;;33.52;29.78
70902;BME280;58548;47.210;8.618;2022-09-14T15:15:40;93400.22;;;33.56;29.79
70902;BME280;58548;47.210;8.618;2022-09-14T15:18:07;93409.09;;;33.72;29.29
70902;BME280;58548;47.210;8.618;2022-09-14T15:20:33;93391.41;;;33.59;29.32
70902;BME280;58548;47.210;8.618;2022-09-14T15:22:59;93401.38;;;33.74;29.37
70902;BME280;58548;47.210;8.618;2022-09-14T15:25:25;93385.03;;;33.87;28.97
70902;BME280;58548;47.210;8.618;2022-09-14T15:27:53;93397.25;;;33.96;29.32
70902;BME280;58548;47.210;8.618;2022-09-14T15:30:21;93405.25;;;33.73;29.75
70902;BME280;58548;47.210;8.618;2022-09-14T15:32:47;93385.19;;;33.58;28.81
70902;BME280;58548;47.210;8.618;2022-09-14T15:35:18;93412.63;;;33.41;29.23
70902;BME280;58548;47.210;8.618;2022-09-14T15:37:48;93387.31;;;33.17;30.17
70902;BME280;58548;47.210;8.618;2022-09-14T15:40:16;93400.31;;;33.11;30.20
70902;BME280;58548;47.210;8.618;2022-09-14T15:42:42;93400.25;;;32.91;30.78
70902;BME280;58548;47.210;8.618;2022-09-14T15:45:09;93415.63;;;32.75;30.66